createdAt,value
2022-09-21T00:01:30.412Z,10.40
2022-09-21T00:04:03.218Z,10.40
2022-09-21T00:06:33.460Z,10.40
2022-09-21T00:09:01.305Z,10.40
2022-09-21T00:11:30.595Z,10.40
2022-09-21T00:14:01.432Z,10.40
2022-09-21T00:16:29.523Z,10.40
2022-09-21T00:18:57.081Z,10.40
2022-09-21T00:21:25.089Z,10.50
2022-09-21T00:23:52.320Z,10.50
2022-09-21T00:26:22.516Z,10.50
2022-09-21T00:28:55.037Z,10.50
2022-09-21T00:31:22.821Z,10.60
2022-09-21T00:33:51.309Z,10.50
2022-09-21T00:36:21.227Z,10.60
2022-09-21T00:38:54.480Z,10.60
2022-09-21T00:41:22.151Z,10.50
2022-09-21T00:44:19.300Z,10.50
2022-09-21T00:46:48.663Z,10.50
2022-09-21T00:49:17.450Z,10.50
2022-09-21T00:51:46.733Z,10.40
2022-09-21T00:54:20.188Z,10.40
2022-09-21T00:56:47.751Z,10.30
2022-09-21T00:59:21.528Z,10.30
2022-09-21T01:01:49.932Z,10.30
2022-09-21T01:04:19.024Z,10.20
2022-09-21T01:06:48.006Z,10.20
2022-09-21T01:09:16.322Z,10.20
2022-09-21T01:12:05.379Z,10.20
2022-09-21T01:15:14.045Z,10.10
2022-09-21T01:18:05.263Z,10.10
2022-09-21T01:21:01.344Z,10.10
2022-09-21T01:23:46.825Z,10.10
2022-09-21T01:26:32.889Z,10.00
2022-09-21T01:29:12.399Z,10.00
2022-09-21T01:32:15.991Z,9.90
2022-09-21T01:34:54.586Z,9.90
2022-09-21T01:37:41.785Z,9.90
2022-09-21T01:40:23.989Z,9.80
2022-09-21T01:42:54.640Z,9.80
2022-09-21T01:45:29.634Z,9.80
2022-09-21T01:47:59.740Z,9.80
2022-09-21T01:50:32.900Z,9.80
2022-09-21T01:53:08.314Z,9.80
2022-09-21T01:55:46.482Z,9.90
2022-09-21T01:58:42.890Z,9.90
2022-09-21T02:01:15.362Z,9.90
2022-09-21T02:03:50.036Z,9.90
2022-09-21T02:06:18.979Z,10.00
2022-09-21T02:08:47.194Z,10.00
2022-09-21T02:11:14.745Z,10.00
2022-09-21T02:13:48.372Z,10.00
2022-09-21T02:16:41.922Z,10.00
2022-09-21T02:19:14.501Z,10.10
2022-09-21T02:22:10.997Z,10.10
2022-09-21T02:24:47.643Z,10.20
2022-09-21T02:27:34.649Z,10.20
2022-09-21T02:30:14.201Z,10.20
2022-09-21T02:33:00.163Z,10.20
2022-09-21T02:35:30.548Z,10.20
2022-09-21T02:38:21.359Z,10.20
2022-09-21T02:40:56.336Z,10.20
2022-09-21T02:43:28.159Z,10.20
2022-09-21T02:46:02.648Z,10.30
2022-09-21T02:48:54.233Z,10.20
2022-09-21T02:51:34.746Z,10.10
2022-09-21T02:54:06.655Z,10.00
2022-09-21T02:56:35.156Z,10.00
2022-09-21T02:59:05.787Z,10.00
2022-09-21T03:01:34.468Z,9.90
2022-09-21T03:04:02.737Z,9.90
2022-09-21T03:06:31.560Z,9.90
2022-09-21T03:08:58.910Z,9.90
2022-09-21T03:11:26.568Z,9.90
2022-09-21T03:13:53.888Z,9.80
2022-09-21T03:16:22.589Z,9.80
2022-09-21T03:18:50.287Z,9.90
2022-09-21T03:21:17.706Z,9.90
2022-09-21T03:23:45.071Z,9.90
2022-09-21T03:26:12.452Z,9.90
2022-09-21T03:28:39.786Z,10.00
2022-09-21T03:31:07.270Z,9.90
2022-09-21T03:33:34.643Z,9.90
2022-09-21T03:36:02.203Z,9.90
2022-09-21T03:38:29.581Z,9.90
2022-09-21T03:40:58.071Z,9.90
2022-09-21T03:43:25.587Z,9.90
2022-09-21T03:45:53.367Z,9.90
2022-09-21T03:48:21.772Z,9.90
2022-09-21T03:50:49.186Z,9.90
2022-09-21T03:53:16.459Z,9.90
2022-09-21T03:55:44.247Z,9.90
2022-09-21T03:58:11.625Z,9.80
2022-09-21T04:00:39.480Z,9.80
2022-09-21T04:03:06.858Z,9.80
2022-09-21T04:05:34.146Z,9.80
2022-09-21T04:08:02.677Z,9.80
2022-09-21T04:10:33.500Z,9.70
2022-09-21T04:13:03.658Z,9.70
2022-09-21T04:15:31.511Z,9.70
2022-09-21T04:17:59.422Z,9.60
2022-09-21T04:20:27.079Z,9.60
2022-09-21T04:22:54.511Z,9.70
2022-09-21T04:25:22.058Z,9.70
2022-09-21T04:27:49.871Z,9.80
2022-09-21T04:30:17.562Z,9.80
2022-09-21T04:32:45.180Z,9.80
2022-09-21T04:35:12.684Z,9.80
2022-09-21T04:37:40.056Z,9.80
2022-09-21T04:40:08.082Z,9.80
2022-09-21T04:42:35.967Z,9.80
2022-09-21T04:45:03.717Z,9.80
2022-09-21T04:47:31.582Z,9.80
2022-09-21T04:49:58.998Z,9.80
2022-09-21T04:52:26.561Z,9.90
2022-09-21T04:54:54.032Z,9.90
2022-09-21T04:57:21.420Z,10.00
2022-09-21T04:59:48.774Z,10.00
2022-09-21T05:02:16.119Z,10.00
2022-09-21T05:04:47.502Z,10.10
2022-09-21T05:07:17.720Z,10.20
2022-09-21T05:10:03.135Z,10.20
2022-09-21T05:12:32.319Z,10.30
2022-09-21T05:14:59.939Z,10.50
2022-09-21T05:17:27.676Z,10.50
2022-09-21T05:19:55.143Z,10.50
2022-09-21T05:22:22.950Z,10.60
2022-09-21T05:24:50.292Z,10.70
2022-09-21T05:27:17.747Z,10.70
2022-09-21T05:29:45.585Z,10.60
2022-09-21T05:32:13.369Z,10.60
2022-09-21T05:35:01.119Z,10.50
2022-09-21T05:37:47.088Z,10.40
2022-09-21T05:40:15.046Z,10.40
2022-09-21T05:42:42.739Z,10.40
2022-09-21T05:45:15.288Z,10.30
2022-09-21T05:47:57.771Z,10.30
2022-09-21T05:50:37.196Z,10.40
2022-09-21T05:53:31.601Z,10.40
2022-09-21T05:56:01.071Z,10.50
2022-09-21T05:59:01.939Z,10.60
2022-09-21T06:01:52.468Z,10.70
2022-09-21T06:04:20.064Z,10.80
2022-09-21T06:06:47.336Z,11.00
2022-09-21T06:09:14.913Z,11.10
2022-09-21T06:11:42.288Z,11.10
2022-09-21T06:14:09.596Z,11.20
2022-09-21T06:16:38.968Z,11.30
2022-09-21T06:19:06.533Z,11.30
2022-09-21T06:21:33.710Z,11.40
2022-09-21T06:24:01.342Z,11.50
2022-09-21T06:26:29.072Z,11.90
2022-09-21T06:28:56.403Z,12.00
2022-09-21T06:31:24.022Z,12.20
2022-09-21T06:33:51.459Z,12.20
2022-09-21T06:36:18.920Z,12.40
2022-09-21T06:38:46.308Z,12.50
2022-09-21T06:41:20.125Z,12.30
2022-09-21T06:43:49.063Z,12.20
2022-09-21T06:46:16.399Z,12.30
2022-09-21T06:48:43.933Z,12.40
2022-09-21T06:51:11.345Z,12.40
2022-09-21T06:53:38.725Z,12.50
2022-09-21T06:56:10.416Z,12.60
2022-09-21T06:58:38.526Z,12.80
2022-09-21T07:01:15.730Z,12.70
2022-09-21T07:03:43.866Z,12.90
2022-09-21T07:06:14.205Z,13.00
2022-09-21T07:11:29.979Z,13.00
2022-09-21T07:13:58.625Z,13.00
2022-09-21T07:16:26.378Z,12.90
2022-09-21T07:18:53.779Z,12.90
2022-09-21T07:21:21.462Z,12.90
2022-09-21T07:23:48.814Z,12.90
2022-09-21T07:26:16.651Z,12.80
2022-09-21T07:28:44.632Z,12.80
2022-09-21T07:31:14.900Z,12.90
2022-09-21T07:33:48.783Z,13.00
2022-09-21T07:36:17.915Z,13.20
2022-09-21T07:38:45.547Z,13.50
2022-09-21T07:41:14.009Z,13.80
2022-09-21T07:43:41.922Z,14.60
2022-09-21T07:46:12.364Z,14.80
2022-09-21T07:48:40.129Z,15.10
2022-09-21T07:51:13.892Z,15.20
2022-09-21T07:53:44.768Z,15.50
2022-09-21T07:56:15.157Z,15.10
2022-09-21T07:59:01.399Z,15.00
2022-09-21T08:01:29.819Z,14.90
2022-09-21T08:03:58.484Z,15.10
2022-09-21T08:06:28.182Z,14.90
2022-09-21T08:08:57.946Z,15.00
2022-09-21T08:11:27.660Z,15.00
2022-09-21T08:14:00.568Z,15.00
2022-09-21T08:16:29.697Z,15.60
2022-09-21T08:18:57.208Z,16.00
2022-09-21T08:21:24.677Z,16.10
2022-09-21T08:23:51.943Z,16.10
2022-09-21T08:26:20.722Z,16.20
2022-09-21T08:28:50.075Z,16.70
2022-09-21T08:31:23.204Z,17.60
2022-09-21T08:33:51.284Z,17.80
2022-09-21T08:36:19.685Z,17.80
2022-09-21T08:38:48.258Z,17.70
2022-09-21T08:41:23.910Z,17.70
2022-09-21T08:44:02.947Z,17.20
2022-09-21T08:46:32.938Z,16.50
2022-09-21T08:49:17.999Z,16.00
2022-09-21T08:51:56.548Z,15.80
2022-09-21T08:54:47.432Z,16.00
2022-09-21T08:57:16.396Z,15.80
2022-09-21T08:59:46.418Z,15.90
2022-09-21T09:02:13.966Z,16.10
2022-09-21T09:04:54.128Z,16.10
2022-09-21T09:07:27.195Z,16.30
2022-09-21T09:10:17.989Z,16.40
2022-09-21T09:13:00.296Z,17.00
2022-09-21T09:15:55.341Z,17.30
2022-09-21T09:18:56.481Z,17.70
2022-09-21T09:21:35.868Z,17.60
2022-09-21T09:24:09.514Z,17.20
2022-09-21T09:26:48.101Z,17.00
2022-09-21T09:29:21.295Z,17.00
2022-09-21T09:31:50.457Z,17.00
2022-09-21T09:34:40.406Z,17.20
2022-09-21T09:37:18.063Z,17.20
2022-09-21T09:39:57.265Z,16.90
2022-09-21T09:43:04.875Z,16.30
2022-09-21T09:45:56.814Z,15.90
2022-09-21T09:48:38.665Z,15.60
2022-09-21T09:51:08.814Z,15.10
2022-09-21T09:53:36.279Z,14.70
2022-09-21T09:56:03.965Z,14.60
2022-09-21T09:58:54.768Z,14.50
2022-09-21T10:01:46.996Z,14.40
2022-09-21T10:04:17.627Z,14.30
2022-09-21T10:06:46.933Z,14.50
2022-09-21T10:09:40.704Z,14.50
2022-09-21T10:12:24.225Z,14.50
2022-09-21T10:14:56.525Z,14.60
2022-09-21T10:17:25.873Z,14.60
2022-09-21T10:20:06.278Z,14.80
2022-09-21T10:22:33.598Z,15.10
2022-09-21T10:25:05.320Z,15.40
2022-09-21T10:27:37.942Z,15.70
2022-09-21T10:30:06.358Z,16.10
2022-09-21T10:32:36.962Z,16.40
2022-09-21T10:35:10.635Z,16.60
2022-09-21T10:37:48.554Z,16.70
2022-09-21T10:40:18.789Z,16.60
2022-09-21T10:42:48.266Z,16.50
2022-09-21T10:45:19.831Z,16.70
2022-09-21T10:47:50.851Z,16.70
2022-09-21T10:50:31.891Z,18.40
2022-09-21T10:53:10.981Z,19.80
2022-09-21T10:56:04.714Z,19.60
2022-09-21T10:58:39.330Z,19.50
2022-09-21T11:01:24.700Z,19.40
2022-09-21T11:04:20.954Z,19.30
2022-09-21T11:06:54.567Z,19.00
2022-09-21T11:09:39.267Z,18.10
2022-09-21T11:12:20.330Z,17.60
2022-09-21T11:15:20.749Z,16.90
2022-09-21T11:18:14.868Z,16.50
2022-09-21T11:20:55.035Z,16.10
2022-09-21T11:24:04.544Z,15.60
2022-09-21T11:26:51.865Z,15.20
2022-09-21T11:29:35.458Z,15.00
2022-09-21T11:32:31.385Z,15.10
2022-09-21T11:35:25.147Z,15.00
2022-09-21T11:38:21.651Z,15.10
2022-09-21T11:41:08.765Z,15.10
2022-09-21T11:43:53.348Z,14.80
2022-09-21T11:46:35.017Z,14.70
2022-09-21T11:49:28.013Z,14.70
2022-09-21T11:52:25.990Z,14.80
2022-09-21T11:55:36.496Z,14.90
2022-09-21T11:58:22.424Z,15.00
2022-09-21T12:01:19.207Z,15.20
2022-09-21T12:04:32.489Z,15.40
2022-09-21T12:07:27.688Z,15.70
2022-09-21T12:10:32.269Z,15.40
2022-09-21T12:13:26.379Z,15.30
2022-09-21T12:16:03.632Z,15.10
2022-09-21T12:18:49.126Z,15.00
2022-09-21T12:21:30.482Z,14.90
2022-09-21T12:24:05.716Z,14.80
2022-09-21T12:26:39.367Z,14.90
2022-09-21T12:29:37.319Z,14.70
2022-09-21T12:32:25.663Z,14.60
2022-09-21T12:35:04.642Z,14.60
2022-09-21T12:37:58.904Z,14.70
2022-09-21T12:40:27.885Z,15.20
2022-09-21T12:43:09.376Z,15.90
2022-09-21T12:45:46.478Z,17.10
2022-09-21T12:48:34.190Z,17.10
2022-09-21T12:51:11.849Z,17.60
2022-09-21T12:53:48.506Z,17.10
2022-09-21T12:56:26.298Z,16.60
2022-09-21T12:58:59.383Z,16.50
2022-09-21T13:01:47.959Z,16.30
2022-09-21T13:04:45.720Z,16.70
2022-09-21T13:07:36.939Z,17.40
2022-09-21T13:10:31.817Z,17.00
2022-09-21T13:13:03.302Z,16.50
2022-09-21T13:15:33.296Z,16.30
2022-09-21T13:18:06.214Z,16.30
2022-09-21T13:20:36.133Z,16.00
2022-09-21T13:23:03.803Z,16.00
2022-09-21T13:25:37.786Z,16.10
2022-09-21T13:28:19.906Z,16.10
2022-09-21T13:30:48.713Z,16.20
2022-09-21T13:33:29.816Z,16.50
2022-09-21T13:36:02.542Z,17.10
2022-09-21T13:38:41.334Z,17.60
2022-09-21T13:41:17.722Z,17.70
2022-09-21T13:43:49.893Z,17.60
2022-09-21T13:46:35.559Z,17.30
2022-09-21T13:49:18.167Z,16.90
2022-09-21T13:52:06.224Z,16.30
2022-09-21T13:54:38.136Z,16.20
2022-09-21T13:57:24.181Z,16.40
2022-09-21T14:00:13.260Z,16.70
2022-09-21T14:02:51.388Z,16.50
2022-09-21T14:05:31.934Z,16.60
2022-09-21T14:08:17.499Z,16.60
2022-09-21T14:10:55.707Z,16.40
2022-09-21T14:13:28.870Z,16.00
2022-09-21T14:16:34.388Z,15.90
2022-09-21T14:19:18.066Z,15.80
2022-09-21T14:22:04.238Z,15.40
2022-09-21T14:24:38.896Z,15.20
2022-09-21T14:27:26.621Z,15.20
2022-09-21T14:30:00.191Z,15.30
2022-09-21T14:32:33.779Z,15.50
2022-09-21T14:35:11.635Z,15.30
2022-09-21T14:37:43.352Z,15.10
2022-09-21T14:40:26.885Z,15.00
2022-09-21T14:42:56.743Z,15.00
2022-09-21T14:45:46.522Z,14.80
2022-09-21T14:48:22.742Z,14.80
2022-09-21T14:51:06.067Z,14.50
2022-09-21T14:53:46.296Z,14.40
2022-09-21T14:56:34.760Z,14.10
2022-09-21T14:59:38.651Z,13.90
2022-09-21T15:02:21.210Z,13.80
2022-09-21T15:05:14.298Z,13.70
2022-09-21T15:08:00.040Z,13.60
2022-09-21T15:11:04.896Z,13.50
2022-09-21T15:13:47.817Z,13.30
2022-09-21T15:16:40.696Z,13.20
2022-09-21T15:19:16.477Z,13.10
2022-09-21T15:21:49.662Z,13.00
2022-09-21T15:24:25.154Z,12.80
2022-09-21T15:27:02.129Z,12.80
2022-09-21T15:29:31.759Z,12.70
2022-09-21T15:32:00.506Z,12.70
2022-09-21T15:34:28.619Z,12.60
2022-09-21T15:37:12.374Z,12.50
2022-09-21T15:39:41.430Z,12.50
2022-09-21T15:42:08.550Z,12.40
2022-09-21T15:44:37.671Z,12.30
2022-09-21T15:47:11.410Z,12.30
2022-09-21T15:49:39.735Z,12.30
2022-09-21T15:52:22.713Z,12.30
2022-09-21T15:55:00.620Z,12.20
2022-09-21T15:57:40.720Z,12.20
2022-09-21T16:00:21.573Z,12.10
2022-09-21T16:02:59.069Z,12.00
2022-09-21T16:05:26.763Z,12.00
2022-09-21T16:08:08.185Z,12.00
2022-09-21T16:10:40.836Z,11.90
2022-09-21T16:13:35.975Z,11.90
2022-09-21T16:16:12.911Z,11.80
2022-09-21T16:18:55.912Z,11.80
2022-09-21T16:21:31.146Z,11.80
2022-09-21T16:24:10.107Z,11.70
2022-09-21T16:26:39.514Z,11.70
2022-09-21T16:29:28.702Z,11.60
2022-09-21T16:32:17.565Z,11.60
2022-09-21T16:34:53.321Z,11.50
2022-09-21T16:37:24.477Z,11.50
2022-09-21T16:39:56.308Z,11.40
2022-09-21T16:42:27.258Z,11.40
2022-09-21T16:44:55.727Z,11.40
2022-09-21T16:47:25.896Z,11.30
2022-09-21T16:49:57.141Z,11.30
2022-09-21T16:52:25.478Z,11.30
2022-09-21T16:54:52.795Z,11.20
2022-09-21T16:57:20.608Z,11.20
2022-09-21T16:59:49.835Z,11.20
2022-09-21T17:02:18.367Z,11.20
2022-09-21T17:04:46.046Z,11.20
2022-09-21T17:07:14.916Z,11.20
2022-09-21T17:09:46.584Z,11.20
2022-09-21T17:12:15.673Z,11.20
2022-09-21T17:14:46.714Z,11.30
2022-09-21T17:17:22.103Z,11.30
2022-09-21T17:19:50.388Z,11.40
2022-09-21T17:22:18.361Z,11.40
2022-09-21T17:24:50.937Z,11.40
2022-09-21T17:27:21.696Z,11.40
2022-09-21T17:29:50.312Z,11.50
2022-09-21T17:32:22.345Z,11.50
2022-09-21T17:35:15.441Z,11.50
2022-09-21T17:37:43.700Z,11.50
2022-09-21T17:40:12.391Z,11.50
2022-09-21T17:42:43.438Z,11.50
2022-09-21T17:45:29.485Z,11.50
2022-09-21T17:47:57.136Z,11.50
2022-09-21T17:50:27.514Z,11.50
2022-09-21T17:53:14.932Z,11.50
2022-09-21T17:55:54.656Z,11.50
2022-09-21T17:58:42.357Z,11.60
2022-09-21T18:01:39.832Z,11.60
2022-09-21T18:04:11.065Z,11.60
2022-09-21T18:06:38.715Z,11.60
2022-09-21T18:09:06.677Z,11.60
2022-09-21T18:12:10.828Z,11.60
2022-09-21T18:14:53.303Z,11.60
2022-09-21T18:17:39.636Z,11.60
2022-09-21T18:20:24.819Z,11.70
2022-09-21T18:23:00.787Z,11.70
2022-09-21T18:25:34.971Z,11.60
2022-09-21T18:28:12.690Z,11.70
2022-09-21T18:30:48.423Z,11.60
2022-09-21T18:33:21.634Z,11.60
2022-09-21T18:36:10.840Z,11.60
2022-09-21T18:38:49.149Z,11.60
2022-09-21T18:41:43.670Z,11.70
2022-09-21T18:44:51.132Z,11.70
2022-09-21T18:47:30.584Z,11.70
2022-09-21T18:50:23.013Z,11.60
2022-09-21T18:53:29.519Z,11.60
2022-09-21T18:55:57.157Z,11.60
2022-09-21T18:58:24.863Z,11.50
2022-09-21T19:00:52.744Z,11.50
2022-09-21T19:03:20.474Z,11.50
2022-09-21T19:06:20.816Z,11.50
2022-09-21T19:08:58.848Z,11.50
2022-09-21T19:12:03.795Z,11.50
2022-09-21T19:14:52.395Z,11.50
2022-09-21T19:17:48.939Z,11.60
2022-09-21T19:20:50.017Z,11.60
2022-09-21T19:23:54.715Z,11.60
2022-09-21T19:27:03.261Z,11.70
2022-09-21T19:29:40.387Z,11.70
2022-09-21T19:32:17.486Z,11.70
2022-09-21T19:34:45.377Z,11.70
2022-09-21T19:37:12.775Z,11.70
2022-09-21T19:39:40.415Z,11.70
2022-09-21T19:42:25.445Z,11.70
2022-09-21T19:45:08.103Z,11.70
2022-09-21T19:47:53.618Z,11.70
2022-09-21T19:50:24.389Z,11.70
2022-09-21T19:52:52.619Z,11.70
2022-09-21T19:55:39.875Z,11.70
2022-09-21T19:58:26.226Z,11.60
2022-09-21T20:00:58.892Z,11.60
2022-09-21T20:03:53.914Z,11.60
2022-09-21T20:06:34.421Z,11.70
2022-09-21T20:09:56.258Z,11.60
2022-09-21T20:12:34.984Z,11.70
2022-09-21T20:15:10.882Z,11.60
2022-09-21T20:17:54.416Z,11.60
2022-09-21T20:20:29.195Z,11.60
2022-09-21T20:22:56.837Z,11.60
2022-09-21T20:25:52.697Z,11.60
2022-09-21T20:28:20.796Z,11.60
2022-09-21T20:30:48.165Z,11.60
2022-09-21T20:33:22.771Z,11.60
2022-09-21T20:35:56.017Z,11.60
2022-09-21T20:38:23.724Z,11.50
2022-09-21T20:40:51.738Z,11.50
2022-09-21T20:43:19.785Z,11.50
2022-09-21T20:45:49.483Z,11.50
2022-09-21T20:48:17.304Z,11.50
2022-09-21T20:50:47.014Z,11.50
2022-09-21T20:53:14.700Z,11.50
2022-09-21T20:55:43.915Z,11.50
2022-09-21T20:58:14.367Z,11.50
2022-09-21T21:00:42.566Z,11.40
2022-09-21T21:03:12.774Z,11.40
2022-09-21T21:05:40.024Z,11.50
2022-09-21T21:08:07.852Z,11.50
2022-09-21T21:10:35.501Z,11.50
2022-09-21T21:13:03.235Z,11.40
2022-09-21T21:15:31.887Z,11.40
2022-09-21T21:17:59.200Z,11.40
2022-09-21T21:20:26.404Z,11.30
2022-09-21T21:22:54.023Z,11.30
2022-09-21T21:25:21.217Z,11.30
2022-09-21T21:27:48.481Z,11.30
2022-09-21T21:30:15.922Z,11.30
2022-09-21T21:32:43.406Z,11.30
2022-09-21T21:35:10.636Z,11.20
2022-09-21T21:37:37.981Z,11.20
2022-09-21T21:40:05.884Z,11.20
2022-09-21T21:42:33.316Z,11.20
2022-09-21T21:45:00.528Z,11.20
2022-09-21T21:47:39.200Z,11.20
2022-09-21T21:50:08.612Z,11.10
2022-09-21T21:52:35.838Z,11.10
2022-09-21T21:55:03.896Z,11.10
2022-09-21T21:57:31.226Z,11.10
2022-09-21T21:59:58.662Z,11.00
2022-09-21T22:02:26.193Z,11.00
2022-09-21T22:04:53.660Z,11.10
2022-09-21T22:07:21.028Z,11.00
2022-09-21T22:09:48.448Z,11.00
2022-09-21T22:12:15.886Z,11.00
2022-09-21T22:14:46.549Z,11.00
2022-09-21T22:17:14.626Z,10.90
2022-09-21T22:19:43.116Z,10.90
2022-09-21T22:22:10.494Z,10.90
2022-09-21T22:24:37.776Z,10.90
2022-09-21T22:27:05.134Z,10.90
2022-09-21T22:29:32.411Z,10.90
2022-09-21T22:32:00.702Z,10.90
2022-09-21T22:34:28.139Z,10.80
2022-09-21T22:36:56.532Z,10.90
2022-09-21T22:39:24.389Z,10.90
2022-09-21T22:41:51.705Z,10.80
2022-09-21T22:44:19.016Z,10.90
2022-09-21T22:46:46.412Z,10.90
2022-09-21T22:49:13.700Z,10.90
2022-09-21T22:51:41.459Z,10.80
2022-09-21T22:54:08.816Z,10.80
2022-09-21T22:56:36.446Z,10.80
2022-09-21T22:59:05.310Z,10.70
2022-09-21T23:01:38.251Z,10.70
2022-09-21T23:04:11.426Z,10.70
2022-09-21T23:06:41.537Z,10.70
2022-09-21T23:09:13.928Z,10.70
2022-09-21T23:11:43.718Z,10.70
2022-09-21T23:14:11.628Z,10.60
2022-09-21T23:16:39.075Z,10.60
2022-09-21T23:19:07.369Z,10.60
2022-09-21T23:21:34.818Z,10.70
2022-09-21T23:24:03.261Z,10.60
2022-09-21T23:26:33.271Z,10.70
2022-09-21T23:29:02.883Z,10.70
2022-09-21T23:31:32.135Z,10.70
2022-09-21T23:34:04.168Z,10.70
2022-09-21T23:36:32.612Z,10.70
2022-09-21T23:38:59.978Z,10.70
2022-09-21T23:41:30.492Z,10.70
2022-09-21T23:43:59.035Z,10.70
2022-09-21T23:46:29.088Z,10.70
2022-09-21T23:48:57.964Z,10.70
2022-09-21T23:51:26.156Z,10.70
2022-09-21T23:53:54.033Z,10.60
2022-09-21T23:56:22.719Z,10.70
2022-09-21T23:58:51.122Z,10.70
